Cooper City, Florida
Current Conditions -  °F | °C
As of 8:53 PM on Saturday 20 Dec 2014 (Local Time) from KHWO Reporting Station
Clear Clear  
Wind Chill: 67°   Ceiling: Unl
Heat Index: 67°   Visibility: 10mi
Dew Point: 61°   Wind: 0mph
Humidity: 81%   Direction: NA
Pressure: 30.1"   Gusts: NA
Location:  26.026°N, 80.2963°W
Report Text: KHWO 210153Z AUTO 00000KT 10SM CLR 19/16 A3010 RMK AO2 SLP191 T01940161
Loading
Personal Weather Stations






























Interactive Weather Map New forecast layout! Learn more

10-Day Weather Forecast

Advertisements
Track Severe Weather on mobile